Rumely, Michigan
Current Conditions -  °F | °C
As of 7:50 PM on Monday 24 Nov 2014 (Local Time) from KSAW Reporting Station
Light Snow Light Snow  
Wind Chill: 13°   Ceiling: 500
Heat Index: 27°   Visibility: 1.2mi
Dew Point: 23°   Wind: 18mph
Humidity: 86%   Direction: 340°NNW
Pressure: 29.33"   Gusts: 24mph
Location:  46.35°N, 87.03°W
Report Text: KSAW 250050Z 34016G21KT 1 1/4SM -SN BKN005 OVC014 M03/M05 A2933
Loading
Personal Weather Stations






























Interactive Weather Map New forecast layout! Learn more

10-Day Weather Forecast

Advertisements
Track Severe Weather on mobile